createdAt,value
2019-03-17T00:01:24.369Z,4.50
2019-03-17T00:03:54.720Z,5.20
2019-03-17T00:06:25.172Z,4.90
2019-03-17T00:08:55.248Z,4.73
2019-03-17T00:11:25.373Z,5.60
2019-03-17T00:13:55.331Z,5.17
2019-03-17T00:16:25.410Z,4.93
2019-03-17T00:18:55.618Z,4.93
2019-03-17T00:21:25.900Z,5.13
2019-03-17T00:23:55.854Z,5.43
2019-03-17T00:26:26.088Z,5.67
2019-03-17T00:28:56.310Z,6.47
2019-03-17T00:31:26.743Z,5.80
2019-03-17T00:33:57.078Z,5.60
2019-03-17T00:36:27.528Z,5.77
2019-03-17T00:38:57.506Z,6.17
2019-03-17T00:41:27.820Z,5.43
2019-03-17T00:43:57.771Z,6.17
2019-03-17T00:46:28.155Z,5.83
2019-03-17T00:48:58.304Z,5.87
2019-03-17T00:51:28.682Z,5.73
2019-03-17T00:53:58.757Z,5.93
2019-03-17T00:56:29.002Z,6.33
2019-03-17T00:58:59.196Z,6.20
2019-03-17T01:01:29.479Z,5.93
2019-03-17T01:03:59.752Z,5.80
2019-03-17T01:06:29.974Z,5.57
2019-03-17T01:09:00.108Z,5.97
2019-03-17T01:11:30.310Z,5.63
2019-03-17T01:14:00.739Z,5.97
2019-03-17T01:16:30.881Z,5.70
2019-03-17T01:19:01.209Z,6.00
2019-03-17T01:21:31.582Z,5.97
2019-03-17T01:24:01.728Z,5.97
2019-03-17T01:26:32.063Z,6.40
2019-03-17T01:29:02.194Z,6.07
2019-03-17T01:31:32.302Z,5.43
2019-03-17T01:34:02.614Z,5.63
2019-03-17T01:36:32.686Z,6.07
2019-03-17T01:39:02.818Z,5.73
2019-03-17T01:41:33.098Z,6.70
2019-03-17T01:44:03.184Z,5.97
2019-03-17T01:46:33.331Z,5.87
2019-03-17T01:49:03.676Z,6.17
2019-03-17T01:51:33.966Z,6.90
2019-03-17T01:54:04.382Z,6.67
2019-03-17T01:56:34.992Z,7.10
2019-03-17T01:59:05.247Z,7.80
2019-03-17T02:01:35.601Z,7.17
2019-03-17T02:04:05.813Z,7.90
2019-03-17T02:06:35.744Z,7.17
2019-03-17T02:09:07.250Z,7.83
2019-03-17T02:11:37.601Z,7.80
2019-03-17T02:14:07.991Z,8.17
2019-03-17T02:16:38.143Z,7.57
2019-03-17T02:19:08.413Z,7.43
2019-03-17T02:21:38.614Z,7.90
2019-03-17T02:24:08.995Z,6.67
2019-03-17T02:26:39.349Z,6.97
2019-03-17T02:29:09.507Z,6.47
2019-03-17T02:31:39.685Z,7.20
2019-03-17T02:34:11.949Z,7.17
2019-03-17T02:36:41.770Z,6.37
2019-03-17T02:39:12.202Z,6.70
2019-03-17T02:41:42.605Z,7.30
2019-03-17T02:44:13.033Z,6.73
2019-03-17T02:46:43.385Z,7.33
2019-03-17T02:49:13.830Z,7.10
2019-03-17T02:51:44.149Z,6.47
2019-03-17T02:54:14.320Z,7.50
2019-03-17T02:56:44.558Z,7.90
2019-03-17T02:59:14.733Z,6.87
2019-03-17T03:01:44.899Z,7.77
2019-03-17T03:04:15.432Z,7.47
2019-03-17T03:06:45.790Z,7.57
2019-03-17T03:09:16.681Z,7.47
2019-03-17T03:11:46.953Z,7.47
2019-03-17T03:14:17.159Z,7.60
2019-03-17T03:16:47.254Z,7.97
2019-03-17T03:19:17.510Z,7.93
2019-03-17T03:21:47.845Z,7.97
2019-03-17T03:24:17.826Z,7.97
2019-03-17T03:26:48.005Z,8.30
2019-03-17T03:29:18.823Z,8.07
2019-03-17T03:31:48.801Z,7.90
2019-03-17T03:34:19.202Z,7.80
2019-03-17T03:36:50.300Z,7.87
2019-03-17T03:39:20.442Z,7.70
2019-03-17T03:41:50.705Z,7.87
2019-03-17T03:44:21.512Z,8.50
2019-03-17T03:46:51.691Z,8.63
2019-03-17T03:49:22.233Z,8.37
2019-03-17T03:51:52.751Z,7.97
2019-03-17T03:54:23.091Z,9.07
2019-03-17T03:56:53.103Z,8.83
2019-03-17T03:59:23.233Z,8.97
2019-03-17T04:01:53.789Z,9.13
2019-03-17T04:04:23.904Z,9.57
2019-03-17T04:06:54.075Z,9.73
2019-03-17T04:09:24.361Z,10.10
2019-03-17T04:11:54.448Z,10.87
2019-03-17T04:14:24.528Z,12.93
2019-03-17T04:16:54.682Z,13.27
2019-03-17T04:19:24.807Z,12.63
2019-03-17T04:21:54.945Z,13.87
2019-03-17T04:24:25.058Z,14.57
2019-03-17T04:26:55.126Z,16.07
2019-03-17T04:29:25.196Z,16.13
2019-03-17T04:31:55.414Z,15.17
2019-03-17T04:34:25.533Z,15.23
2019-03-17T04:36:55.676Z,15.17
2019-03-17T04:39:25.892Z,14.00
2019-03-17T04:41:56.461Z,14.27
2019-03-17T04:44:26.612Z,14.50
2019-03-17T04:46:56.904Z,15.47
2019-03-17T04:49:27.084Z,15.37
2019-03-17T04:51:57.590Z,15.77
2019-03-17T04:54:27.825Z,15.27
2019-03-17T04:56:58.073Z,15.77
2019-03-17T04:59:28.168Z,15.00
2019-03-17T05:01:58.678Z,16.73
2019-03-17T05:04:28.646Z,15.47
2019-03-17T05:06:59.037Z,14.47
2019-03-17T05:09:29.036Z,15.40
2019-03-17T05:11:59.642Z,14.87
2019-03-17T05:14:29.813Z,14.60
2019-03-17T05:17:00.350Z,14.37
2019-03-17T05:19:30.434Z,15.67
2019-03-17T05:22:01.044Z,15.77
2019-03-17T05:24:31.325Z,16.47
2019-03-17T05:27:01.748Z,16.53
2019-03-17T05:29:32.707Z,17.43
2019-03-17T05:32:03.238Z,15.73
2019-03-17T05:34:33.647Z,15.17
2019-03-17T05:37:06.459Z,15.37
2019-03-17T05:39:35.716Z,15.80
2019-03-17T05:42:05.944Z,15.93
2019-03-17T05:44:36.130Z,15.93
2019-03-17T05:47:06.404Z,16.07
2019-03-17T05:49:37.080Z,16.53
2019-03-17T05:52:07.342Z,15.93
2019-03-17T05:54:37.447Z,14.67
2019-03-17T05:57:07.566Z,13.77
2019-03-17T05:59:37.606Z,15.53
2019-03-17T06:02:07.587Z,3.90
2019-03-17T06:04:38.100Z,2.10
2019-03-17T06:07:18.114Z,2.10
2019-03-17T06:09:40.108Z,1.97
2019-03-17T06:12:10.467Z,1.37
2019-03-17T06:14:40.771Z,2.17
2019-03-17T06:17:11.211Z,1.70
2019-03-17T06:19:41.421Z,1.77
2019-03-17T06:22:11.641Z,2.27
2019-03-17T06:24:41.675Z,2.40
2019-03-17T06:27:11.804Z,1.90
2019-03-17T06:29:41.960Z,1.90
2019-03-17T06:32:11.957Z,1.93
2019-03-17T06:34:42.202Z,2.53
2019-03-17T06:37:12.376Z,1.53
2019-03-17T06:39:42.590Z,2.00
2019-03-17T06:42:12.779Z,2.03
2019-03-17T06:44:43.141Z,2.83
2019-03-17T06:47:13.253Z,1.30
2019-03-17T06:49:44.333Z,1.60
2019-03-17T06:52:14.435Z,1.77
2019-03-17T06:54:44.552Z,2.00
2019-03-17T06:57:14.615Z,1.90
2019-03-17T06:59:45.164Z,2.00
2019-03-17T07:02:15.436Z,1.60
2019-03-17T07:04:45.324Z,1.93
2019-03-17T07:07:15.256Z,1.83
2019-03-17T07:09:45.461Z,2.13
2019-03-17T07:12:15.614Z,1.37
2019-03-17T07:14:45.808Z,1.80
2019-03-17T07:17:19.130Z,1.90
2019-03-17T07:19:49.368Z,1.83
2019-03-17T07:22:19.399Z,1.53
2019-03-17T07:24:49.322Z,1.83
2019-03-17T07:27:19.478Z,3.37
2019-03-17T07:29:49.851Z,1.90
2019-03-17T07:32:20.304Z,2.30
2019-03-17T07:34:50.445Z,2.17
2019-03-17T07:37:20.933Z,1.87
2019-03-17T07:39:51.015Z,2.40
2019-03-17T07:42:21.041Z,2.13
2019-03-17T07:44:51.345Z,2.33
2019-03-17T07:47:21.397Z,2.80
2019-03-17T07:49:52.732Z,2.40
2019-03-17T07:52:23.044Z,2.57
2019-03-17T07:54:53.401Z,2.50
2019-03-17T07:57:23.391Z,2.83
2019-03-17T07:59:53.406Z,3.13
2019-03-17T08:02:24.307Z,2.17
2019-03-17T08:04:54.524Z,2.40
2019-03-17T08:07:25.028Z,2.63
2019-03-17T08:09:55.151Z,3.20
2019-03-17T08:12:25.243Z,2.23
2019-03-17T08:14:57.657Z,3.43
2019-03-17T08:17:26.902Z,3.37
2019-03-17T08:19:56.854Z,3.07
2019-03-17T08:22:27.175Z,3.67
2019-03-17T08:24:57.502Z,2.03
2019-03-17T08:27:27.898Z,2.07
2019-03-17T08:29:58.124Z,2.37
2019-03-17T08:32:28.653Z,2.77
2019-03-17T08:34:58.780Z,2.40
2019-03-17T08:37:29.109Z,2.30
2019-03-17T08:39:59.156Z,2.30
2019-03-17T08:42:29.355Z,2.93
2019-03-17T08:44:59.462Z,3.00
2019-03-17T08:47:29.561Z,2.70
2019-03-17T08:49:59.661Z,3.53
2019-03-17T08:52:29.719Z,3.40
2019-03-17T08:54:59.740Z,3.67
2019-03-17T08:57:29.591Z,2.87
2019-03-17T08:59:59.983Z,2.77
2019-03-17T09:02:30.066Z,2.90
2019-03-17T09:05:00.360Z,2.50
2019-03-17T09:07:30.240Z,2.53
2019-03-17T09:10:00.534Z,3.50
2019-03-17T09:12:30.852Z,2.90
2019-03-17T09:15:00.996Z,2.67
2019-03-17T09:17:31.269Z,2.33
2019-03-17T09:20:01.388Z,2.00
2019-03-17T09:22:31.630Z,2.90
2019-03-17T09:25:01.786Z,2.07
2019-03-17T09:27:32.001Z,5.23
2019-03-17T09:30:02.551Z,3.67
2019-03-17T09:32:34.915Z,2.33
2019-03-17T09:35:07.287Z,1.90
2019-03-17T09:37:37.608Z,1.80
2019-03-17T09:40:15.726Z,2.30
2019-03-17T09:42:45.847Z,2.13
2019-03-17T09:45:16.225Z,1.97
2019-03-17T09:47:47.226Z,2.10
2019-03-17T09:50:24.726Z,2.23
2019-03-17T09:52:54.716Z,2.30
2019-03-17T09:55:25.037Z,1.93
2019-03-17T09:57:55.277Z,1.63
2019-03-17T10:00:25.759Z,1.63
2019-03-17T10:02:55.884Z,1.47
2019-03-17T10:08:16.312Z,1.77
2019-03-17T10:10:46.559Z,2.13
2019-03-17T10:13:16.667Z,2.07
2019-03-17T10:15:46.687Z,1.63
2019-03-17T10:18:16.839Z,1.77
2019-03-17T10:20:46.911Z,1.97
2019-03-17T10:23:17.087Z,2.83
2019-03-17T10:25:47.374Z,2.13
2019-03-17T10:28:17.550Z,3.30
2019-03-17T10:30:47.739Z,2.40
2019-03-17T10:33:17.791Z,1.80
2019-03-17T10:35:47.887Z,1.50
2019-03-17T10:38:18.016Z,1.20
2019-03-17T10:40:48.278Z,1.47
2019-03-17T10:43:18.510Z,1.53
2019-03-17T10:45:48.635Z,1.67
2019-03-17T10:48:18.762Z,1.60
2019-03-17T10:50:50.051Z,1.30
2019-03-17T10:53:20.465Z,1.67
2019-03-17T10:55:50.472Z,1.73
2019-03-17T10:58:20.551Z,1.40
2019-03-17T11:00:50.829Z,1.20
2019-03-17T11:03:21.031Z,2.40
2019-03-17T11:05:51.280Z,1.03
2019-03-17T11:08:21.504Z,1.70
2019-03-17T11:10:51.739Z,1.27
2019-03-17T11:13:22.098Z,1.47
2019-03-17T11:15:52.258Z,1.73
2019-03-17T11:18:22.553Z,1.57
2019-03-17T11:20:52.553Z,1.73
2019-03-17T11:23:22.795Z,1.60
2019-03-17T11:25:52.809Z,1.70
2019-03-17T11:28:22.899Z,1.40
2019-03-17T11:30:58.020Z,1.40
2019-03-17T11:33:28.148Z,1.93
2019-03-17T11:35:58.476Z,2.20
2019-03-17T11:38:28.808Z,1.60
2019-03-17T11:40:59.056Z,2.20
2019-03-17T11:43:29.368Z,2.43
2019-03-17T11:45:59.460Z,1.53
2019-03-17T11:48:29.470Z,1.20
2019-03-17T11:50:59.788Z,1.47
2019-03-17T11:53:29.793Z,1.60
2019-03-17T11:55:59.941Z,1.30
2019-03-17T11:58:30.036Z,1.03
2019-03-17T12:01:00.183Z,1.17
2019-03-17T12:03:30.361Z,1.17
2019-03-17T12:06:00.362Z,1.60
2019-03-17T12:08:30.573Z,2.30
2019-03-17T12:11:00.604Z,1.60
2019-03-17T12:13:30.598Z,2.20
2019-03-17T12:16:00.604Z,2.00
2019-03-17T12:18:30.945Z,2.30
2019-03-17T12:21:00.957Z,1.80
2019-03-17T12:23:31.218Z,2.67
2019-03-17T12:26:01.558Z,2.63
2019-03-17T12:28:31.993Z,3.10
2019-03-17T12:31:02.190Z,2.60
2019-03-17T12:33:32.525Z,2.07
2019-03-17T12:36:02.551Z,1.60
2019-03-17T12:38:32.786Z,1.47
2019-03-17T12:41:02.899Z,1.80
2019-03-17T12:43:32.984Z,2.87
2019-03-17T12:46:02.869Z,1.70
2019-03-17T12:48:32.763Z,2.20
2019-03-17T12:51:02.728Z,1.60
2019-03-17T12:53:32.706Z,1.73
2019-03-17T12:56:02.801Z,1.67
2019-03-17T12:58:32.723Z,1.60
2019-03-17T13:01:03.010Z,2.60
2019-03-17T13:03:33.226Z,1.67
2019-03-17T13:06:03.690Z,1.63
2019-03-17T13:08:33.783Z,1.83
2019-03-17T13:11:04.031Z,2.27
2019-03-17T13:13:34.066Z,1.80
2019-03-17T13:16:04.276Z,2.10
2019-03-17T13:18:52.010Z,1.77
2019-03-17T13:21:21.863Z,1.40
2019-03-17T13:23:52.019Z,1.30
2019-03-17T13:26:22.083Z,1.60
2019-03-17T13:28:52.274Z,2.63
2019-03-17T13:31:22.405Z,2.27
2019-03-17T13:33:52.560Z,1.93
2019-03-17T13:36:22.511Z,2.70
2019-03-17T13:38:52.722Z,1.40
2019-03-17T13:41:22.878Z,1.73
2019-03-17T13:43:52.838Z,2.07
2019-03-17T13:46:23.119Z,1.63
2019-03-17T13:48:53.279Z,1.73
2019-03-17T13:51:23.194Z,1.37
2019-03-17T13:53:53.231Z,1.40
2019-03-17T13:56:23.405Z,2.70
2019-03-17T13:58:53.749Z,2.93
2019-03-17T14:01:23.827Z,2.10
2019-03-17T14:03:54.979Z,2.17
2019-03-17T14:06:25.137Z,1.90
2019-03-17T14:08:55.260Z,1.90
2019-03-17T14:11:25.443Z,1.33
2019-03-17T14:13:56.047Z,1.30
2019-03-17T14:16:26.224Z,2.03
2019-03-17T14:18:56.423Z,2.13
2019-03-17T14:21:26.477Z,1.73
2019-03-17T14:23:56.416Z,1.50
2019-03-17T14:26:26.560Z,1.23
2019-03-17T14:28:56.681Z,0.97
2019-03-17T14:31:26.967Z,1.30
2019-03-17T14:33:57.119Z,1.40
2019-03-17T14:36:27.116Z,2.57
2019-03-17T14:38:57.193Z,1.50
2019-03-17T14:41:27.431Z,1.53
2019-03-17T14:43:57.401Z,1.83
2019-03-17T14:46:27.554Z,1.50
2019-03-17T14:48:57.702Z,1.80
2019-03-17T14:51:28.126Z,1.47
2019-03-17T14:53:58.255Z,1.67
2019-03-17T14:56:28.731Z,1.37
2019-03-17T14:58:59.390Z,1.30
2019-03-17T15:01:29.782Z,1.33
2019-03-17T15:03:59.726Z,1.50
2019-03-17T15:06:29.892Z,1.77
2019-03-17T15:09:02.184Z,1.40
2019-03-17T15:11:32.886Z,1.37
2019-03-17T15:14:03.143Z,1.33
2019-03-17T15:16:33.247Z,1.60
2019-03-17T15:19:03.848Z,1.83
2019-03-17T15:21:33.874Z,1.97
2019-03-17T15:24:04.141Z,1.37
2019-03-17T15:26:34.310Z,1.97
2019-03-17T15:29:04.343Z,1.60
2019-03-17T15:31:34.613Z,2.30
2019-03-17T15:34:04.808Z,1.73
2019-03-17T15:36:34.885Z,1.50
2019-03-17T15:39:06.547Z,1.77
2019-03-17T15:41:36.759Z,1.50
2019-03-17T15:44:06.917Z,1.77
2019-03-17T15:46:36.938Z,1.50
2019-03-17T15:49:07.081Z,1.30
2019-03-17T15:51:37.108Z,1.77
2019-03-17T15:54:07.154Z,1.53
2019-03-17T15:56:37.134Z,1.47
2019-03-17T15:59:07.156Z,2.30
2019-03-17T16:01:37.294Z,1.77
2019-03-17T16:04:07.491Z,1.23
2019-03-17T16:06:37.523Z,1.53
2019-03-17T16:09:08.512Z,1.60
2019-03-17T16:11:38.544Z,1.83
2019-03-17T16:14:08.723Z,1.57
2019-03-17T16:16:38.806Z,1.10
2019-03-17T16:19:08.830Z,1.33
2019-03-17T16:21:38.691Z,1.60
2019-03-17T16:24:08.916Z,1.10
2019-03-17T16:26:38.826Z,1.23
2019-03-17T16:29:08.825Z,1.20
2019-03-17T16:31:38.843Z,1.70
2019-03-17T16:34:09.019Z,1.47
2019-03-17T16:36:39.188Z,1.10
2019-03-17T16:39:09.096Z,2.00
2019-03-17T16:41:43.615Z,1.47
2019-03-17T16:44:10.689Z,1.40
2019-03-17T16:46:40.756Z,1.70
2019-03-17T16:49:10.714Z,2.17
2019-03-17T16:51:40.690Z,2.93
2019-03-17T16:54:10.661Z,2.73
2019-03-17T16:56:40.645Z,2.57
2019-03-17T16:59:10.797Z,2.50
2019-03-17T17:01:41.904Z,2.90
2019-03-17T17:04:12.058Z,3.03
2019-03-17T17:06:42.144Z,2.97
2019-03-17T17:09:12.201Z,2.00
2019-03-17T17:11:42.294Z,2.13
2019-03-17T17:14:12.376Z,2.27
2019-03-17T17:16:42.464Z,2.77
2019-03-17T17:19:12.461Z,2.23
2019-03-17T17:21:42.581Z,2.27
2019-03-17T17:24:12.585Z,2.63
2019-03-17T17:26:42.683Z,2.27
2019-03-17T17:29:12.772Z,2.00
2019-03-17T17:31:42.753Z,1.77
2019-03-17T17:34:12.684Z,1.93
2019-03-17T17:36:42.760Z,1.90
2019-03-17T17:39:12.736Z,1.93
2019-03-17T17:41:42.794Z,2.27
2019-03-17T17:44:12.741Z,2.40
2019-03-17T17:46:42.904Z,2.13
2019-03-17T17:49:13.124Z,2.37
2019-03-17T17:51:43.420Z,1.87
2019-03-17T17:54:13.592Z,3.27
2019-03-17T17:56:43.660Z,2.83
2019-03-17T17:59:13.761Z,2.40
2019-03-17T18:01:43.692Z,2.90
2019-03-17T18:04:13.714Z,2.97
2019-03-17T18:06:43.694Z,2.37
2019-03-17T18:09:13.728Z,2.47
2019-03-17T18:11:43.823Z,2.57
2019-03-17T18:14:13.740Z,3.67
2019-03-17T18:16:43.729Z,2.97
2019-03-17T18:19:13.715Z,2.53
2019-03-17T18:21:43.629Z,3.17
2019-03-17T18:24:13.659Z,2.47
2019-03-17T18:26:43.915Z,3.43
2019-03-17T18:29:14.149Z,2.17
2019-03-17T18:31:44.176Z,2.97
2019-03-17T18:34:14.291Z,1.70
2019-03-17T18:36:44.414Z,2.10
2019-03-17T18:39:14.514Z,1.97
2019-03-17T18:41:44.917Z,2.37
2019-03-17T18:44:14.892Z,2.20
2019-03-17T18:46:44.885Z,2.57
2019-03-17T18:49:14.911Z,2.77
2019-03-17T18:51:44.861Z,2.43
2019-03-17T18:54:14.911Z,1.93
2019-03-17T18:56:45.024Z,2.47
2019-03-17T18:59:17.744Z,2.27
2019-03-17T19:01:46.697Z,2.67
2019-03-17T19:04:16.726Z,3.13
2019-03-17T19:06:46.935Z,2.30
2019-03-17T19:09:17.187Z,1.90
2019-03-17T19:11:47.282Z,2.60
2019-03-17T19:14:17.369Z,2.03
2019-03-17T19:16:47.436Z,2.03
2019-03-17T19:19:17.390Z,2.10
2019-03-17T19:21:47.600Z,1.83
2019-03-17T19:24:17.622Z,2.20
2019-03-17T19:26:47.687Z,2.57
2019-03-17T19:29:17.866Z,2.53
2019-03-17T19:31:47.841Z,2.13
2019-03-17T19:34:17.861Z,2.87
2019-03-17T19:36:48.224Z,2.30
2019-03-17T19:39:18.233Z,2.40
2019-03-17T19:41:48.315Z,3.13
2019-03-17T19:44:18.353Z,2.13
2019-03-17T19:46:48.460Z,2.53
2019-03-17T19:49:18.526Z,2.20
2019-03-17T19:51:48.608Z,2.97
2019-03-17T19:54:18.660Z,2.40
2019-03-17T19:56:48.989Z,2.67
2019-03-17T19:59:19.054Z,2.73
2019-03-17T20:01:49.153Z,2.83
2019-03-17T20:04:29.992Z,2.90
2019-03-17T20:06:51.257Z,4.07
2019-03-17T20:09:21.304Z,3.07
2019-03-17T20:11:51.318Z,2.63
2019-03-17T20:14:21.232Z,2.53
2019-03-17T20:16:51.216Z,2.80
2019-03-17T20:19:21.346Z,2.50
2019-03-17T20:21:51.435Z,2.37
2019-03-17T20:24:21.425Z,2.87
2019-03-17T20:26:51.301Z,2.10
2019-03-17T20:29:21.287Z,2.83
2019-03-17T20:31:51.269Z,1.97
2019-03-17T20:34:21.356Z,2.23
2019-03-17T20:36:51.874Z,2.77
2019-03-17T20:39:21.876Z,2.07
2019-03-17T20:41:51.817Z,2.20
2019-03-17T20:44:21.889Z,1.80
2019-03-17T20:46:52.062Z,2.70
2019-03-17T20:49:22.219Z,2.30
2019-03-17T20:51:52.244Z,2.03
2019-03-17T20:54:22.333Z,2.00
2019-03-17T20:56:52.362Z,1.97
2019-03-17T20:59:22.471Z,3.57
2019-03-17T21:01:52.566Z,2.23
2019-03-17T21:04:22.649Z,2.40
2019-03-17T21:06:52.480Z,2.20
2019-03-17T21:09:22.377Z,3.40
2019-03-17T21:11:52.365Z,2.50
2019-03-17T21:14:22.368Z,2.30
2019-03-17T21:16:52.713Z,2.30
2019-03-17T21:19:22.954Z,2.27
2019-03-17T21:21:53.002Z,2.33
2019-03-17T21:24:23.154Z,2.03
2019-03-17T21:26:53.171Z,2.43
2019-03-17T21:29:23.354Z,1.93
2019-03-17T21:31:53.468Z,2.30
2019-03-17T21:34:23.373Z,4.00
2019-03-17T21:36:53.321Z,2.33
2019-03-17T21:39:23.412Z,2.40
2019-03-17T21:41:53.365Z,2.40
2019-03-17T21:44:23.443Z,2.20
2019-03-17T21:46:53.555Z,2.17
2019-03-17T21:49:23.677Z,2.57
2019-03-17T21:51:53.673Z,2.47
2019-03-17T21:54:23.676Z,2.50
2019-03-17T21:56:53.682Z,3.13
2019-03-17T21:59:23.756Z,2.53
2019-03-17T22:01:54.651Z,2.20
2019-03-17T22:04:24.723Z,2.57
2019-03-17T22:06:54.873Z,3.03
2019-03-17T22:09:25.159Z,2.70
2019-03-17T22:11:55.271Z,3.30
2019-03-17T22:14:25.542Z,2.33
2019-03-17T22:16:55.866Z,3.30
2019-03-17T22:19:26.085Z,3.10
2019-03-17T22:21:56.144Z,2.50
2019-03-17T22:24:26.153Z,2.10
2019-03-17T22:26:56.174Z,1.57
2019-03-17T22:29:26.266Z,1.50
2019-03-17T22:31:56.206Z,1.40
2019-03-17T22:34:26.346Z,1.80
2019-03-17T22:36:56.328Z,2.10
2019-03-17T22:39:26.460Z,2.43
2019-03-17T22:41:56.549Z,1.97
2019-03-17T22:44:28.130Z,1.93
2019-03-17T22:46:58.320Z,1.83
2019-03-17T22:49:28.407Z,2.00
2019-03-17T22:51:58.580Z,1.97
2019-03-17T22:54:28.671Z,2.10
2019-03-17T22:56:58.842Z,2.20
2019-03-17T22:59:29.104Z,2.20
2019-03-17T23:01:59.149Z,2.27
2019-03-17T23:04:29.280Z,2.27
2019-03-17T23:06:59.633Z,2.47
2019-03-17T23:09:29.748Z,2.20
2019-03-17T23:11:59.883Z,2.43
2019-03-17T23:14:36.640Z,2.67
2019-03-17T23:17:01.527Z,2.30
2019-03-17T23:19:31.590Z,2.30
2019-03-17T23:22:01.557Z,2.30
2019-03-17T23:24:31.557Z,2.33
2019-03-17T23:27:02.471Z,2.30
2019-03-17T23:29:32.519Z,1.87
2019-03-17T23:32:02.496Z,2.20
2019-03-17T23:34:32.681Z,2.10
2019-03-17T23:37:02.760Z,2.27
2019-03-17T23:39:33.037Z,1.87
2019-03-17T23:42:03.185Z,2.17
2019-03-17T23:44:33.144Z,1.97
2019-03-17T23:47:03.175Z,2.07
2019-03-17T23:49:33.751Z,1.57
2019-03-17T23:52:03.876Z,2.00
2019-03-17T23:54:33.884Z,1.60
2019-03-17T23:57:03.895Z,1.63
2019-03-17T23:59:34.019Z,1.93
